CheckWX is a tool to help pilots better visualize weather data.  It is not intended as a substitute for an official pre-flight weather briefing.

09:05:23 UTC

KCCO METAR
Newnan Coweta County Airport
Atlanta, Georgia, USA
Current

30 mins ago

KCCO 220835Z AUTO 01004KT 7SM OVC002 15/15 A3009 RMK AO2 T01520146
Observed
Feb-22 @ 08:35 UTC
Wind
  • 010° at 4 KTS
Visibility
7 SM
Flight Rules
LIFR
Cloud Levels
  • Overcast at 200' AGL
Temperature
15°C / 59°F
Dewpoint
15°C / 59°F
Humidity
100%
Altimeter
30.09" Hg
Pressure
1018.92 hPa
Previous

50 mins ago

KCCO 220815Z AUTO 35005KT 7SM OVC002 16/15 A3009 RMK AO2 T01600153
Observed
Feb-22 @ 08:15 UTC
Wind
  • 350° at 5 KTS
Visibility
7 SM
Flight Rules
LIFR
Cloud Levels
  • Overcast at 200' AGL
Temperature
16°C / 61°F
Dewpoint
15°C / 59°F
Humidity
94%
Altimeter
30.09" Hg
Pressure
1018.92 hPa
Previous

1 hour ago

KCCO 220755Z AUTO 01003KT 7SM OVC002 16/16 A3009 RMK AO2 T01620156
Observed
Feb-22 @ 07:55 UTC
Wind
  • 010° at 3 KTS
Visibility
7 SM
Flight Rules
LIFR
Cloud Levels
  • Overcast at 200' AGL
Temperature
16°C / 61°F
Dewpoint
16°C / 61°F
Humidity
100%
Altimeter
30.09" Hg
Pressure
1018.92 hPa